createdAt,value
2022-12-23T00:02:01.425Z,99097.66
2022-12-23T00:04:51.307Z,99097.44
2022-12-23T00:07:40.155Z,99098.47
2022-12-23T00:10:28.677Z,99090.47
2022-12-23T00:13:35.300Z,99082.91
2022-12-23T00:16:23.831Z,99072.06
2022-12-23T00:19:12.327Z,99085.47
2022-12-23T00:22:02.090Z,99071.06
2022-12-23T00:24:50.536Z,99068.47
2022-12-23T00:27:39.048Z,99043.50
2022-12-23T00:30:27.664Z,99059.75
2022-12-23T00:33:16.972Z,99064.41
2022-12-23T00:36:12.719Z,99079.22
2022-12-23T00:39:20.131Z,99070.47
2022-12-23T00:42:27.509Z,99074.59
2022-12-23T00:45:18.871Z,99075.84
2022-12-23T00:48:24.681Z,99075.97
2022-12-23T00:51:13.120Z,99067.00
2022-12-23T00:54:03.059Z,99079.13
2022-12-23T00:56:54.264Z,99075.66
2022-12-23T00:59:42.745Z,99091.53
2022-12-23T01:02:48.948Z,99088.84
2022-12-23T01:05:37.551Z,99104.13
2022-12-23T01:08:26.123Z,99104.56
2022-12-23T01:11:16.002Z,99108.00
2022-12-23T01:14:04.516Z,99104.34
2022-12-23T01:16:53.244Z,99112.78
2022-12-23T01:19:41.899Z,99115.47
2022-12-23T01:22:30.381Z,99116.59
2022-12-23T01:25:18.904Z,99131.09
2022-12-23T01:28:08.744Z,99136.25
2022-12-23T01:30:57.237Z,99135.41
2022-12-23T01:33:45.988Z,99142.22
2022-12-23T01:36:34.498Z,99146.06
2022-12-23T01:39:22.966Z,99139.53
2022-12-23T01:42:31.439Z,99144.16
2022-12-23T01:45:22.318Z,99126.66
2022-12-23T01:48:13.414Z,99141.16
2022-12-23T01:51:04.841Z,99170.00
2022-12-23T01:53:55.102Z,99173.25
2022-12-23T01:56:43.599Z,99191.25
2022-12-23T01:59:54.895Z,99183.78
2022-12-23T02:03:02.604Z,99189.72
2022-12-23T02:05:51.376Z,99190.53
2022-12-23T02:08:58.000Z,99198.38
2022-12-23T02:12:00.179Z,99203.75
2022-12-23T02:15:17.999Z,99206.53
2022-12-23T02:18:24.276Z,99212.72
2022-12-23T02:21:45.457Z,99201.38
2022-12-23T02:25:08.366Z,99211.09
2022-12-23T02:28:09.912Z,99232.34
2022-12-23T02:31:02.684Z,99235.84
2022-12-23T02:33:57.617Z,99238.66
2022-12-23T02:36:50.965Z,99237.13
2022-12-23T02:39:42.405Z,99248.94
2022-12-23T02:42:33.692Z,99252.00
2022-12-23T02:45:26.331Z,99253.50
2022-12-23T02:48:18.628Z,99264.59
2022-12-23T02:51:09.017Z,99258.06
2022-12-23T02:54:00.003Z,99275.13
2022-12-23T02:56:51.630Z,99264.38
2022-12-23T02:59:42.828Z,99259.47
2022-12-23T03:02:32.173Z,99266.84
2022-12-23T03:05:30.631Z,99267.75
2022-12-23T03:08:22.077Z,99264.63
2022-12-23T03:11:12.668Z,99282.59
2022-12-23T03:14:11.519Z,99285.06
2022-12-23T03:17:09.859Z,99293.59
2022-12-23T03:20:03.060Z,99260.88
2022-12-23T03:22:59.995Z,99301.19
2022-12-23T03:25:54.913Z,99277.94
2022-12-23T03:28:47.787Z,99303.63
2022-12-23T03:31:38.020Z,99295.34
2022-12-23T03:34:28.834Z,99303.06
2022-12-23T03:37:19.014Z,99282.97
2022-12-23T03:40:13.281Z,99307.94
2022-12-23T03:43:04.578Z,99312.53
2022-12-23T03:45:56.285Z,99289.50
2022-12-23T03:48:46.630Z,99323.75
2022-12-23T03:51:39.660Z,99325.84
2022-12-23T03:54:32.006Z,99326.31
2022-12-23T03:57:23.106Z,99323.75
2022-12-23T04:00:12.709Z,99327.38
2022-12-23T04:03:07.300Z,99332.88
2022-12-23T04:05:58.687Z,99336.81
2022-12-23T04:08:47.652Z,99347.34
2022-12-23T04:11:36.432Z,99356.47
2022-12-23T04:14:26.249Z,99357.06
2022-12-23T04:19:50.889Z,99334.03
2022-12-23T04:22:39.538Z,99353.00
2022-12-23T04:25:27.963Z,99357.78
2022-12-23T04:28:18.128Z,99362.91
2022-12-23T04:31:08.057Z,99361.97
2022-12-23T04:33:56.496Z,99362.44
2022-12-23T04:36:44.957Z,99372.75
2022-12-23T04:39:33.409Z,99383.22
2022-12-23T04:42:21.975Z,99362.88
2022-12-23T04:45:11.264Z,99369.09
2022-12-23T04:48:01.120Z,99386.97
2022-12-23T04:50:49.614Z,99378.69
2022-12-23T04:53:38.279Z,99379.84
2022-12-23T04:56:26.685Z,99378.00
2022-12-23T04:59:15.382Z,99362.09
2022-12-23T05:02:04.064Z,99376.81
2022-12-23T05:04:53.959Z,99358.00
2022-12-23T05:07:42.426Z,99386.06
2022-12-23T05:10:30.920Z,99381.03
2022-12-23T05:13:19.551Z,99377.16
2022-12-23T05:16:08.461Z,99382.19
2022-12-23T05:18:57.023Z,99388.63
2022-12-23T05:21:46.822Z,99380.22
2022-12-23T05:24:35.272Z,99375.28
2022-12-23T05:27:23.680Z,99383.84
2022-12-23T05:30:12.864Z,99388.50
2022-12-23T05:33:01.415Z,99395.88
2022-12-23T05:35:49.898Z,99401.72
2022-12-23T05:38:39.764Z,99377.63
2022-12-23T05:41:28.284Z,99385.59
2022-12-23T05:44:16.746Z,99378.44
2022-12-23T05:47:05.206Z,99381.25
2022-12-23T05:49:53.692Z,99375.97
2022-12-23T05:52:42.124Z,99381.13
2022-12-23T05:55:31.900Z,99380.06
2022-12-23T05:58:20.377Z,99381.59
2022-12-23T06:01:08.779Z,99346.38
2022-12-23T06:03:57.281Z,99380.53
2022-12-23T06:06:45.846Z,99373.06
2022-12-23T06:09:34.322Z,99380.91
2022-12-23T06:12:24.165Z,99363.22
2022-12-23T06:15:13.087Z,99382.88
2022-12-23T06:18:01.643Z,99381.00
2022-12-23T06:20:50.127Z,99377.59
2022-12-23T06:23:38.582Z,99394.31
2022-12-23T06:26:27.296Z,99388.13
2022-12-23T06:29:17.210Z,99387.41
2022-12-23T06:32:06.138Z,99386.56
2022-12-23T06:34:54.620Z,99384.72
2022-12-23T06:37:43.073Z,99388.69
2022-12-23T06:40:31.479Z,99399.78
2022-12-23T06:43:20.079Z,99360.59
2022-12-23T06:46:09.897Z,99397.00
2022-12-23T06:48:58.345Z,99388.78
2022-12-23T06:51:46.768Z,99397.22
2022-12-23T06:54:35.204Z,99398.25
2022-12-23T06:57:23.632Z,99408.19
2022-12-23T07:00:13.448Z,99409.81
2022-12-23T07:03:03.491Z,99419.06
2022-12-23T07:05:52.306Z,99409.28
2022-12-23T07:08:40.737Z,99416.84
2022-12-23T07:11:29.213Z,99380.56
2022-12-23T07:14:17.657Z,99415.81
2022-12-23T07:17:06.279Z,99416.16
2022-12-23T07:19:56.204Z,99421.78
2022-12-23T07:22:44.649Z,99410.56
2022-12-23T07:25:33.128Z,99418.66
2022-12-23T07:28:21.582Z,99431.75
2022-12-23T07:31:10.038Z,99435.63
2022-12-23T07:33:58.596Z,99424.06
2022-12-23T07:36:48.479Z,99428.59
2022-12-23T07:39:36.972Z,99433.16
2022-12-23T07:42:44.280Z,99429.91
2022-12-23T07:45:33.884Z,99426.28
2022-12-23T07:48:22.414Z,99419.00
2022-12-23T07:51:10.885Z,99432.00
2022-12-23T07:54:00.820Z,99437.50
2022-12-23T07:56:49.303Z,99441.13
2022-12-23T07:59:37.787Z,99448.47
2022-12-23T08:02:26.440Z,99437.75
2022-12-23T08:05:16.299Z,99452.72
2022-12-23T08:08:05.293Z,99398.56
2022-12-23T08:11:00.492Z,99457.03
2022-12-23T08:13:49.510Z,99432.13
2022-12-23T08:16:43.386Z,99413.41
2022-12-23T08:19:32.541Z,99451.22
2022-12-23T08:22:21.137Z,99445.81
2022-12-23T08:25:10.207Z,99449.59
2022-12-23T08:28:00.007Z,99442.91
2022-12-23T08:30:48.515Z,99438.81
2022-12-23T08:33:38.759Z,99399.50
2022-12-23T08:36:29.210Z,99431.19
2022-12-23T08:39:17.799Z,99433.56
2022-12-23T08:42:06.363Z,99443.28
2022-12-23T08:44:56.192Z,99434.00
2022-12-23T08:47:44.637Z,99440.69
2022-12-23T08:50:38.125Z,99442.53
2022-12-23T08:53:26.603Z,99436.59
2022-12-23T08:56:20.286Z,99429.56
2022-12-23T08:59:18.786Z,99418.91
2022-12-23T09:02:10.194Z,99443.34
2022-12-23T09:04:58.859Z,99430.00
2022-12-23T09:07:47.334Z,99430.13
2022-12-23T09:10:35.944Z,99410.00
2022-12-23T09:13:32.727Z,99429.78
2022-12-23T09:16:23.929Z,99415.31
2022-12-23T09:19:13.791Z,99405.09
2022-12-23T09:22:02.373Z,99402.31
2022-12-23T09:24:50.864Z,99415.75
2022-12-23T09:27:39.299Z,99401.50
2022-12-23T09:30:27.946Z,99414.84
2022-12-23T09:33:17.093Z,99415.41
2022-12-23T09:36:08.010Z,99384.28
2022-12-23T09:38:57.013Z,99400.91
2022-12-23T09:41:55.901Z,99397.75
2022-12-23T09:44:57.019Z,99393.44
2022-12-23T09:47:46.117Z,99405.56
2022-12-23T09:50:35.781Z,99415.63
2022-12-23T09:53:38.759Z,99413.09
2022-12-23T09:56:37.104Z,99401.25
2022-12-23T09:59:37.173Z,99409.69
2022-12-23T10:02:32.903Z,99397.53
2022-12-23T10:05:27.611Z,99410.16
2022-12-23T10:08:19.111Z,99406.41
2022-12-23T10:11:14.309Z,99409.47
2022-12-23T10:14:05.792Z,99359.41
2022-12-23T10:16:57.074Z,99394.94
2022-12-23T10:19:47.506Z,99377.97
2022-12-23T10:22:38.951Z,99371.34
2022-12-23T10:25:30.304Z,99375.53
2022-12-23T10:28:20.312Z,99381.25
2022-12-23T10:31:39.669Z,99375.63
2022-12-23T10:34:38.854Z,99372.63
2022-12-23T10:37:31.625Z,99365.34
2022-12-23T10:40:24.630Z,99366.53
2022-12-23T10:43:23.454Z,99359.84
2022-12-23T10:46:19.118Z,99352.13
2022-12-23T10:49:16.547Z,99359.88
2022-12-23T10:52:07.528Z,99358.69
2022-12-23T10:54:55.987Z,99353.63
2022-12-23T10:57:44.470Z,99348.69
2022-12-23T11:00:38.664Z,99338.66
2022-12-23T11:03:30.688Z,99340.16
2022-12-23T11:06:20.313Z,99327.88
2022-12-23T11:09:17.451Z,99328.81
2022-12-23T11:12:07.471Z,99329.06
2022-12-23T11:14:57.783Z,99322.59
2022-12-23T11:17:59.725Z,99303.69
2022-12-23T11:21:03.308Z,99309.25
2022-12-23T11:24:13.816Z,99305.38
2022-12-23T11:27:04.052Z,99298.56
2022-12-23T11:29:55.641Z,99297.44
2022-12-23T11:32:44.184Z,99284.81
2022-12-23T11:35:35.394Z,99282.19
2022-12-23T11:38:13.732Z,99273.91
2022-12-23T11:40:42.005Z,99264.47
2022-12-23T11:43:15.802Z,99256.69
2022-12-23T11:45:44.010Z,99250.53
2022-12-23T11:48:30.407Z,99247.25
2022-12-23T11:51:04.292Z,99230.25
2022-12-23T11:53:32.655Z,99224.88
2022-12-23T11:56:03.659Z,99224.75
2022-12-23T11:58:33.962Z,99224.41
2022-12-23T12:01:08.271Z,99208.00
2022-12-23T12:03:44.881Z,99212.00
2022-12-23T12:06:17.120Z,99197.34
2022-12-23T12:08:45.795Z,99201.91
2022-12-23T12:11:16.058Z,99197.34
2022-12-23T12:13:45.769Z,99195.13
2022-12-23T12:16:29.860Z,99193.03
2022-12-23T12:19:01.860Z,99185.44
2022-12-23T12:21:34.699Z,99184.38
2022-12-23T12:24:18.244Z,99184.63
2022-12-23T12:26:51.021Z,99168.13
2022-12-23T12:29:22.526Z,99180.94
2022-12-23T12:31:52.692Z,99180.38
2022-12-23T12:34:33.397Z,99180.38
2022-12-23T12:37:07.826Z,99169.28
2022-12-23T12:39:39.501Z,99168.13
2022-12-23T12:42:30.262Z,99156.72
2022-12-23T12:45:22.326Z,99141.63
2022-12-23T12:48:27.948Z,99138.63
2022-12-23T12:51:23.885Z,99130.47
2022-12-23T12:54:22.352Z,99122.78
2022-12-23T12:57:15.442Z,99116.91
2022-12-23T13:00:06.886Z,99120.34
2022-12-23T13:03:18.762Z,99127.34
2022-12-23T13:06:13.080Z,99137.97
2022-12-23T13:09:09.702Z,99092.03
2022-12-23T13:12:05.690Z,99089.00
2022-12-23T13:15:00.992Z,99124.09
2022-12-23T13:18:03.485Z,99115.94
2022-12-23T13:20:57.166Z,99109.06
2022-12-23T13:23:52.974Z,99107.84
2022-12-23T13:26:50.065Z,99103.53
2022-12-23T13:29:57.990Z,99098.16
2022-12-23T13:33:08.104Z,99076.41
2022-12-23T13:36:10.997Z,99047.88
2022-12-23T13:39:23.637Z,99077.31
2022-12-23T13:42:15.130Z,99073.16
2022-12-23T13:45:06.341Z,99048.19
2022-12-23T13:48:04.985Z,99062.66
2022-12-23T13:50:58.696Z,99071.97
2022-12-23T13:53:55.319Z,99068.25
2022-12-23T13:56:49.793Z,99086.88
2022-12-23T13:59:40.239Z,99077.56
2022-12-23T14:02:52.720Z,99083.16
2022-12-23T14:05:43.852Z,99062.22
2022-12-23T14:08:36.331Z,99073.28
2022-12-23T14:11:26.369Z,99075.78
2022-12-23T14:14:23.749Z,99070.00
2022-12-23T14:17:16.273Z,99076.47
2022-12-23T14:20:17.430Z,99071.81
2022-12-23T14:23:16.921Z,98861.41
2022-12-23T14:26:19.944Z,99063.78
2022-12-23T14:29:21.094Z,99067.41
2022-12-23T14:32:20.497Z,99051.91
2022-12-23T14:35:25.914Z,99058.41
2022-12-23T14:38:31.539Z,99062.56
2022-12-23T14:41:25.670Z,99041.94
2022-12-23T14:44:20.901Z,99069.34
2022-12-23T14:47:31.560Z,99060.00
2022-12-23T14:50:39.125Z,99056.16
2022-12-23T14:53:28.298Z,99057.63
2022-12-23T14:56:24.501Z,99077.31
2022-12-23T14:59:17.917Z,99071.09
2022-12-23T15:02:17.819Z,99075.16
2022-12-23T15:05:06.954Z,99096.22
2022-12-23T15:07:57.145Z,99074.75
2022-12-23T15:10:45.669Z,99084.94
2022-12-23T15:13:34.506Z,99086.88
2022-12-23T15:16:30.630Z,99083.94
2022-12-23T15:19:21.931Z,99070.78
2022-12-23T15:22:22.297Z,99080.97
2022-12-23T15:25:23.171Z,99088.72
2022-12-23T15:28:17.698Z,99085.94
2022-12-23T15:31:07.196Z,99069.53
2022-12-23T15:34:06.926Z,99072.16
2022-12-23T15:36:57.895Z,99096.19
2022-12-23T15:39:46.989Z,99073.50
2022-12-23T15:42:38.293Z,99086.22
2022-12-23T15:45:33.804Z,99084.13
2022-12-23T15:48:26.625Z,99085.75
2022-12-23T15:51:30.741Z,99100.31
2022-12-23T15:54:28.217Z,99090.03
2022-12-23T15:57:20.801Z,99081.94
2022-12-23T16:00:19.635Z,99102.09
2022-12-23T16:03:15.489Z,99090.00
2022-12-23T16:06:09.363Z,99102.59
2022-12-23T16:09:00.218Z,99112.47
2022-12-23T16:11:53.007Z,99111.16
2022-12-23T16:14:42.620Z,99114.81
2022-12-23T16:17:36.395Z,99114.81
2022-12-23T16:20:26.647Z,99117.63
2022-12-23T16:23:15.570Z,99117.88
2022-12-23T16:26:04.728Z,99112.91
2022-12-23T16:28:56.396Z,99121.88
2022-12-23T16:31:52.050Z,99111.44
2022-12-23T16:34:42.205Z,99088.75
2022-12-23T16:37:31.116Z,99119.44
2022-12-23T16:40:19.978Z,99108.91
2022-12-23T16:43:08.455Z,99109.78
2022-12-23T16:45:58.124Z,99087.00
2022-12-23T16:48:50.906Z,99078.59
2022-12-23T16:51:41.697Z,99125.59
2022-12-23T16:54:30.239Z,99132.44
2022-12-23T16:57:18.745Z,99134.25
2022-12-23T17:00:09.571Z,99132.31
2022-12-23T17:02:58.299Z,99134.50
2022-12-23T17:05:47.637Z,99138.94
2022-12-23T17:08:37.481Z,99133.22
2022-12-23T17:11:29.842Z,99145.56
2022-12-23T17:14:19.998Z,99153.56
2022-12-23T17:17:14.253Z,99157.44
2022-12-23T17:20:02.727Z,99165.53
2022-12-23T17:22:54.596Z,99186.00
2022-12-23T17:25:44.456Z,99186.19
2022-12-23T17:28:33.704Z,99165.88
2022-12-23T17:31:26.904Z,99156.13
2022-12-23T17:34:17.667Z,99169.13
2022-12-23T17:37:13.911Z,99187.34
2022-12-23T17:40:02.441Z,99193.44
2022-12-23T17:42:52.239Z,99199.09
2022-12-23T17:45:41.644Z,99194.03
2022-12-23T17:48:32.009Z,99201.31
2022-12-23T17:51:23.272Z,99200.47
2022-12-23T17:54:19.763Z,99173.78
2022-12-23T17:57:17.859Z,99192.31
2022-12-23T18:00:09.281Z,99173.28
2022-12-23T18:02:57.826Z,99213.78
2022-12-23T18:05:46.355Z,99218.09
2022-12-23T18:08:34.779Z,99230.41
2022-12-23T18:11:25.095Z,99233.34
2022-12-23T18:14:17.571Z,99231.06
2022-12-23T18:17:09.166Z,99236.22
2022-12-23T18:19:57.649Z,99242.31
2022-12-23T18:22:47.193Z,99244.19
2022-12-23T18:25:35.709Z,99235.63
2022-12-23T18:28:24.874Z,99212.84
2022-12-23T18:31:16.508Z,99224.38
2022-12-23T18:34:06.371Z,99242.56
2022-12-23T18:36:54.995Z,99248.84
2022-12-23T18:39:43.650Z,99238.81
2022-12-23T18:42:32.107Z,99212.84
2022-12-23T18:45:35.173Z,99233.75
2022-12-23T18:48:23.662Z,99242.66
2022-12-23T18:51:15.441Z,99248.13
2022-12-23T18:54:03.865Z,99250.44
2022-12-23T18:56:52.386Z,99249.63
2022-12-23T18:59:40.936Z,99222.88
2022-12-23T19:02:29.533Z,99250.19
2022-12-23T19:05:19.984Z,99250.94
2022-12-23T19:08:10.861Z,99253.66
2022-12-23T19:10:59.672Z,99271.97
2022-12-23T19:13:48.262Z,99288.00
2022-12-23T19:16:36.829Z,99296.34
2022-12-23T19:19:25.322Z,99280.81
2022-12-23T19:22:13.863Z,99286.13
2022-12-23T19:25:06.343Z,99308.91
2022-12-23T19:27:55.311Z,99311.97
2022-12-23T19:30:43.857Z,99297.22
2022-12-23T19:33:32.359Z,99304.63
2022-12-23T19:36:23.596Z,99294.81
2022-12-23T19:39:16.181Z,99300.72
2022-12-23T19:42:06.653Z,99296.31
2022-12-23T19:44:55.173Z,99304.47
2022-12-23T19:47:43.729Z,99298.84
2022-12-23T19:50:32.238Z,99295.50
2022-12-23T19:53:20.679Z,99314.50
2022-12-23T19:56:13.132Z,99321.19
2022-12-23T19:59:03.624Z,99336.53
2022-12-23T20:01:52.285Z,99353.75
2022-12-23T20:04:41.310Z,99358.94
2022-12-23T20:07:30.379Z,99356.00
2022-12-23T20:10:18.888Z,99355.91
2022-12-23T20:13:07.270Z,99369.53
2022-12-23T20:15:57.154Z,99379.53
2022-12-23T20:18:45.622Z,99384.91
2022-12-23T20:21:34.178Z,99400.72
2022-12-23T20:24:22.706Z,99393.38
2022-12-23T20:27:12.712Z,99419.22
2022-12-23T20:30:03.360Z,99426.78
2022-12-23T20:32:53.198Z,99434.94
2022-12-23T20:35:41.674Z,99433.06
2022-12-23T20:38:30.145Z,99431.44
2022-12-23T20:41:20.613Z,99444.41
2022-12-23T20:44:33.829Z,99443.59
2022-12-23T20:47:17.565Z,99447.09
2022-12-23T20:50:08.734Z,99440.91
2022-12-23T20:52:57.211Z,99446.06
2022-12-23T20:55:45.767Z,99457.06
2022-12-23T20:58:52.156Z,99472.50
2022-12-23T21:01:41.876Z,99451.09
2022-12-23T21:04:30.397Z,99465.16
2022-12-23T21:07:20.249Z,99464.19
2022-12-23T21:10:10.335Z,99344.44
2022-12-23T21:12:58.849Z,99453.66
2022-12-23T21:15:47.419Z,99440.69
2022-12-23T21:18:36.508Z,99440.06
2022-12-23T21:21:26.830Z,99457.88
2022-12-23T21:24:16.982Z,99458.34
2022-12-23T21:27:05.596Z,99469.13
2022-12-23T21:29:54.013Z,99467.47
2022-12-23T21:32:42.556Z,99478.69
2022-12-23T21:35:31.012Z,99490.06
2022-12-23T21:38:19.486Z,99489.47
2022-12-23T21:41:11.010Z,99489.38
2022-12-23T21:44:00.994Z,99518.16
2022-12-23T21:46:51.150Z,99524.38
2022-12-23T21:49:42.168Z,99527.06
2022-12-23T21:52:30.943Z,99543.22
2022-12-23T21:55:19.404Z,99558.69
2022-12-23T21:58:09.227Z,99541.13
2022-12-23T22:00:58.037Z,99565.13
2022-12-23T22:03:48.265Z,99564.53
2022-12-23T22:06:38.587Z,99561.84
2022-12-23T22:09:27.058Z,99555.84
2022-12-23T22:12:15.529Z,99558.91
2022-12-23T22:15:11.450Z,99559.03
2022-12-23T22:18:01.677Z,99564.63
2022-12-23T22:20:50.206Z,99549.09
2022-12-23T22:23:39.338Z,99527.56
2022-12-23T22:26:29.360Z,99562.53
2022-12-23T22:29:18.000Z,99577.31
2022-12-23T22:32:08.025Z,99568.53
2022-12-23T22:34:56.505Z,99584.69
2022-12-23T22:37:45.077Z,99579.28
2022-12-23T22:40:33.551Z,99568.06
2022-12-23T22:43:21.986Z,99560.78
2022-12-23T22:46:11.595Z,99567.59
2022-12-23T22:49:01.569Z,99574.47
2022-12-23T22:51:50.078Z,99571.22
2022-12-23T22:54:38.623Z,99562.75
2022-12-23T22:57:27.075Z,99562.28
2022-12-23T23:00:16.145Z,99569.91
2022-12-23T23:03:04.891Z,99566.38
2022-12-23T23:05:59.607Z,99585.16
2022-12-23T23:08:48.081Z,99577.31
2022-12-23T23:11:36.929Z,99558.47
2022-12-23T23:14:25.639Z,99566.84
2022-12-23T23:17:14.161Z,99549.84
2022-12-23T23:20:02.670Z,99574.88
2022-12-23T23:22:52.521Z,99578.47
2022-12-23T23:25:41.074Z,99576.97
2022-12-23T23:28:29.591Z,99580.59
2022-12-23T23:34:26.762Z,99626.13
2022-12-23T23:37:15.662Z,99628.22
2022-12-23T23:40:06.450Z,99619.88
2022-12-23T23:42:55.492Z,99624.13
2022-12-23T23:45:44.053Z,99619.19
2022-12-23T23:48:32.563Z,99648.00
2022-12-23T23:51:21.033Z,99620.84
2022-12-23T23:54:10.052Z,99675.13
2022-12-23T23:56:59.989Z,99646.63
2022-12-23T23:59:48.603Z,99666.28
